Time;durP1;ratioP1;P1;durP2;ratioP2;P2;SDS_P1;SDS_P2;PMS_P1;PMS_P2;Temp;Humidity;BMP_temperature;BMP_pressure;BME280_temperature;BME280_humidity;BME280_pressure;Samples;Min_cycle;Max_cycle;Signal;HPM_P1;HPM_P2
2022/04/12 00:00:55;;;;;;;;;;;6.20;99.90;;;;;;5001050;28;19921;-68
2022/04/12 00:03:21;;;;;;;;;;;6.70;99.90;;;;;;5008883;28;19980;-69
2022/04/12 00:05:47;;;;;;;;;;;7.60;99.90;;;;;;5005301;28;20374;-69
2022/04/12 00:08:12;;;;;;;;;;;6.20;99.90;;;;;;5001920;28;19964;-70
2022/04/12 00:10:38;;;;;;;;;;;6.10;99.90;;;;;;5002504;28;20128;-69
2022/04/12 00:13:04;;;;;;;;;;;6.80;99.90;;;;;;5018845;28;19921;-68
2022/04/12 00:15:29;;;;;;;;;;;7.00;99.90;;;;;;5004742;28;19968;-68
2022/04/12 00:20:39;;;;;;;;;;;6.00;99.90;;;;;;5011768;28;20119;-68
2022/04/12 00:23:06;;;;;;;;;;;6.40;99.90;;;;;;5004553;28;20012;-69
2022/04/12 00:25:31;;;;;;;;;;;5.90;99.90;;;;;;5010372;28;20475;-68
2022/04/12 00:27:57;;;;;;;;;;;6.00;99.90;;;;;;5005864;28;19925;-68
2022/04/12 00:30:24;;;;;;;;;;;6.30;99.90;;;;;;5000326;28;19948;-69
2022/04/12 00:32:50;;;;;;;;;;;6.30;99.90;;;;;;5003847;28;19929;-68
2022/04/12 00:35:16;;;;;;;;;;;5.90;99.90;;;;;;5011269;28;20335;-69
2022/04/12 00:37:42;;;;;;;;;;;5.90;99.90;;;;;;5007417;28;19975;-69
2022/04/12 00:40:08;;;;;;;;;;;5.90;99.90;;;;;;5003089;28;19968;-68
2022/04/12 00:42:34;;;;;;;;;;;5.80;99.90;;;;;;5005385;28;19965;-70
2022/04/12 00:44:59;;;;;;;;;;;5.80;99.90;;;;;;5013144;28;19948;-68
2022/04/12 00:47:25;;;;;;;;;;;5.80;99.90;;;;;;5007270;28;19929;-68
2022/04/12 00:49:50;;;;;;;;;;;5.80;99.90;;;;;;5013908;28;19922;-69
2022/04/12 00:52:16;;;;;;;;;;;6.40;99.90;;;;;;5007584;28;19925;-69
2022/04/12 00:54:42;;;;;;;;;;;5.90;99.90;;;;;;4999765;28;20257;-70
2022/04/12 00:57:08;;;;;;;;;;;5.80;99.90;;;;;;5014127;28;19975;-68
2022/04/12 00:59:34;;;;;;;;;;;5.80;99.90;;;;;;5002540;28;20375;-70
2022/04/12 01:02:06;;;;;;;;;;;5.70;99.90;;;;;;5004789;28;20001;-68
2022/04/12 01:04:32;;;;;;;;;;;5.70;99.90;;;;;;4996609;28;20024;-69
2022/04/12 01:06:58;;;;;;;;;;;5.70;99.90;;;;;;5008723;28;20049;-70
2022/04/12 01:09:27;;;;;;;;;;;7.30;99.90;;;;;;4999695;28;19922;-68
2022/04/12 01:11:53;;;;;;;;;;;5.70;99.90;;;;;;5017572;28;20478;-69
2022/04/12 01:14:19;;;;;;;;;;;5.70;99.90;;;;;;4998099;28;19930;-69
2022/04/12 01:16:44;;;;;;;;;;;5.80;99.90;;;;;;4998857;28;19928;-69
2022/04/12 01:19:10;;;;;;;;;;;5.70;99.90;;;;;;5008765;28;19925;-69
2022/04/12 01:21:40;;;;;;;;;;;5.60;99.90;;;;;;5012291;28;19968;-68
2022/04/12 01:24:07;;;;;;;;;;;5.60;99.90;;;;;;4999177;28;19953;-68
2022/04/12 01:26:32;;;;;;;;;;;5.60;99.90;;;;;;5005903;28;20434;-69
2022/04/12 01:28:58;;;;;;;;;;;5.90;99.90;;;;;;5026439;28;19921;-69
2022/04/12 01:31:25;;;;;;;;;;;7.40;99.90;;;;;;4997613;28;20008;-68
2022/04/12 01:33:50;;;;;;;;;;;5.80;99.90;;;;;;5003381;28;20379;-68
2022/04/12 01:36:16;;;;;;;;;;;5.60;99.90;;;;;;5003023;28;19993;-68
2022/04/12 01:38:42;;;;;;;;;;;5.50;99.90;;;;;;4998099;28;19921;-70
2022/04/12 01:41:07;;;;;;;;;;;5.50;99.90;;;;;;5002673;28;19928;-68
2022/04/12 01:43:33;;;;;;;;;;;5.50;99.90;;;;;;4995494;28;19972;-68
2022/04/12 01:45:58;;;;;;;;;;;5.50;99.90;;;;;;4991760;28;20398;-68
2022/04/12 01:48:27;;;;;;;;;;;5.50;99.90;;;;;;5010855;28;19932;-69
2022/04/12 01:50:52;;;;;;;;;;;5.50;99.90;;;;;;4999902;28;19984;-68
2022/04/12 01:53:18;;;;;;;;;;;5.40;99.90;;;;;;4999368;28;20019;-68
2022/04/12 01:55:43;;;;;;;;;;;5.50;99.90;;;;;;5008728;28;19921;-68
2022/04/12 01:58:09;;;;;;;;;;;5.40;99.90;;;;;;5011019;28;19925;-69
2022/04/12 02:00:36;;;;;;;;;;;5.40;99.90;;;;;;5008535;28;20342;-69
2022/04/12 02:03:04;;;;;;;;;;;5.80;99.90;;;;;;5009341;28;20020;-69
2022/04/12 02:05:30;;;;;;;;;;;5.40;99.90;;;;;;5006916;28;19999;-69
2022/04/12 02:07:56;;;;;;;;;;;5.40;99.90;;;;;;5020069;28;19926;-68
2022/04/12 02:10:22;;;;;;;;;;;5.30;99.90;;;;;;5013821;28;19975;-68
2022/04/12 02:12:48;;;;;;;;;;;5.40;99.90;;;;;;5006361;28;20293;-68
2022/04/12 02:15:14;;;;;;;;;;;5.30;99.90;;;;;;5004083;28;20429;-68
2022/04/12 02:17:39;;;;;;;;;;;5.80;99.90;;;;;;4998433;28;19921;-68
2022/04/12 02:20:05;;;;;;;;;;;5.30;99.90;;;;;;5002447;28;20544;-68
2022/04/12 02:22:30;;;;;;;;;;;5.30;99.90;;;;;;5015982;28;20355;-68
2022/04/12 02:24:56;;;;;;;;;;;5.20;99.90;;;;;;5005444;28;19930;-67
2022/04/12 02:27:22;;;;;;;;;;;5.20;99.90;;;;;;5005728;28;19935;-67
2022/04/12 02:29:47;;;;;;;;;;;5.20;99.90;;;;;;4996679;28;20297;-70
2022/04/12 02:32:13;;;;;;;;;;;5.20;99.90;;;;;;5008922;28;21154;-69
2022/04/12 02:34:39;;;;;;;;;;;5.10;99.90;;;;;;5005325;28;19960;-67
2022/04/12 02:37:04;;;;;;;;;;;5.10;99.90;;;;;;5018125;28;20397;-68
2022/04/12 02:39:30;;;;;;;;;;;5.10;99.90;;;;;;4998149;28;20004;-69
2022/04/12 02:41:56;;;;;;;;;;;5.00;99.90;;;;;;5008157;28;20336;-68
2022/04/12 02:44:21;;;;;;;;;;;5.00;99.90;;;;;;5003853;28;19987;-69
2022/04/12 02:46:47;;;;;;;;;;;5.00;99.90;;;;;;5007646;28;19933;-70
2022/04/12 02:49:12;;;;;;;;;;;5.00;99.90;;;;;;5003014;28;19922;-69
2022/04/12 02:51:38;;;;;;;;;;;5.00;99.90;;;;;;5008248;28;20323;-68
2022/04/12 02:54:03;;;;;;;;;;;5.60;99.90;;;;;;5010263;28;19929;-70
2022/04/12 02:56:29;;;;;;;;;;;4.90;99.90;;;;;;5001920;28;19921;-68
2022/04/12 02:58:54;;;;;;;;;;;4.90;99.90;;;;;;5008415;28;19929;-68
2022/04/12 03:01:20;;;;;;;;;;;4.90;99.90;;;;;;5002738;28;19938;-68
2022/04/12 03:03:45;;;;;;;;;;;4.90;99.90;;;;;;5019946;28;19927;-69
2022/04/12 03:06:11;;;;;;;;;;;4.80;99.90;;;;;;5006777;28;20433;-69
2022/04/12 03:08:37;;;;;;;;;;;4.80;99.90;;;;;;5003551;28;20425;-68
2022/04/12 03:11:03;;;;;;;;;;;4.80;99.90;;;;;;5004374;28;20346;-68
2022/04/12 03:13:28;;;;;;;;;;;4.80;99.90;;;;;;4999649;28;20001;-69
2022/04/12 03:15:54;;;;;;;;;;;4.80;99.90;;;;;;5000729;28;19925;-68
2022/04/12 03:18:19;;;;;;;;;;;5.10;99.90;;;;;;5004433;28;19929;-69
2022/04/12 03:20:45;;;;;;;;;;;4.80;99.90;;;;;;5015986;28;19928;-70
2022/04/12 03:23:10;;;;;;;;;;;5.00;99.90;;;;;;4999720;28;20343;-68
2022/04/12 03:25:36;;;;;;;;;;;4.80;99.90;;;;;;5009278;28;19972;-69
2022/04/12 03:28:03;;;;;;;;;;;4.90;99.90;;;;;;5008111;28;19968;-68
2022/04/12 03:30:28;;;;;;;;;;;4.80;99.90;;;;;;5002879;28;19929;-68
2022/04/12 03:32:54;;;;;;;;;;;4.90;99.90;;;;;;5004014;28;20334;-68
2022/04/12 03:35:21;;;;;;;;;;;4.90;99.90;;;;;;5007475;28;20326;-69
2022/04/12 03:37:47;;;;;;;;;;;4.80;99.90;;;;;;4986107;28;20455;-68
2022/04/12 03:40:14;;;;;;;;;;;4.90;99.90;;;;;;5002056;28;20000;-69
2022/04/12 03:42:39;;;;;;;;;;;4.80;99.90;;;;;;4997675;28;20012;-68
2022/04/12 03:45:05;;;;;;;;;;;4.80;99.90;;;;;;5012786;28;19980;-68
2022/04/12 03:47:31;;;;;;;;;;;4.80;99.90;;;;;;5004100;28;19922;-69
2022/04/12 03:49:56;;;;;;;;;;;4.80;99.90;;;;;;5011597;28;20060;-67
2022/04/12 03:52:22;;;;;;;;;;;4.80;99.90;;;;;;4995122;28;19972;-68
2022/04/12 03:54:48;;;;;;;;;;;4.80;99.90;;;;;;5010661;28;19974;-67
2022/04/12 03:57:13;;;;;;;;;;;4.90;99.90;;;;;;5007265;28;19921;-68
2022/04/12 03:59:39;;;;;;;;;;;4.80;99.90;;;;;;5007027;28;20087;-68
2022/04/12 04:02:04;;;;;;;;;;;4.90;99.90;;;;;;5013213;28;20236;-68
2022/04/12 04:04:30;;;;;;;;;;;4.90;99.90;;;;;;4999745;28;19929;-69
2022/04/12 04:06:55;;;;;;;;;;;4.90;99.90;;;;;;5001427;28;19969;-68
2022/04/12 04:09:21;;;;;;;;;;;4.90;99.90;;;;;;5006892;28;19949;-68
2022/04/12 04:11:48;;;;;;;;;;;4.90;99.90;;;;;;5009539;28;19922;-69
2022/04/12 04:14:15;;;;;;;;;;;5.00;99.90;;;;;;5007070;28;19928;-68
2022/04/12 04:16:41;;;;;;;;;;;4.90;99.90;;;;;;5020258;28;19928;-69
2022/04/12 04:19:09;;;;;;;;;;;4.90;99.90;;;;;;5010859;28;19976;-68
2022/04/12 04:21:38;;;;;;;;;;;5.00;99.90;;;;;;5017415;28;20276;-68
2022/04/12 04:24:04;;;;;;;;;;;5.00;99.90;;;;;;5004164;28;20020;-69
2022/04/12 04:26:29;;;;;;;;;;;4.90;99.90;;;;;;5003924;28;20016;-69
2022/04/12 04:28:55;;;;;;;;;;;4.90;99.90;;;;;;5005117;28;20478;-68
2022/04/12 04:31:21;;;;;;;;;;;5.10;99.90;;;;;;5007215;28;20445;-68
2022/04/12 04:33:47;;;;;;;;;;;5.60;99.90;;;;;;4998254;28;19928;-68
2022/04/12 04:36:12;;;;;;;;;;;5.00;99.90;;;;;;4999782;28;19922;-69
2022/04/12 04:38:38;;;;;;;;;;;4.90;99.90;;;;;;4999644;28;20376;-69
2022/04/12 04:41:03;;;;;;;;;;;4.90;99.90;;;;;;5008700;28;19925;-68
2022/04/12 04:43:32;;;;;;;;;;;4.80;99.90;;;;;;4996453;28;19921;-68
2022/04/12 04:46:01;;;;;;;;;;;4.80;99.90;;;;;;5009144;28;20381;-68
2022/04/12 04:48:26;;;;;;;;;;;4.90;99.90;;;;;;5008350;28;19930;-68
2022/04/12 04:50:52;;;;;;;;;;;5.30;99.90;;;;;;5006690;28;19949;-69
2022/04/12 04:53:17;;;;;;;;;;;6.00;99.90;;;;;;4997843;28;19983;-67
2022/04/12 04:55:43;;;;;;;;;;;5.00;99.90;;;;;;5004553;28;19965;-68
2022/04/12 04:58:09;;;;;;;;;;;4.70;99.90;;;;;;4990835;28;20011;-72
2022/04/12 05:00:35;;;;;;;;;;;4.70;99.90;;;;;;4984771;28;19933;-67
2022/04/12 05:03:01;;;;;;;;;;;4.70;99.90;;;;;;5002184;28;19976;-67
2022/04/12 05:05:27;;;;;;;;;;;4.70;99.90;;;;;;5001872;28;19933;-68
2022/04/12 05:07:54;;;;;;;;;;;4.60;99.90;;;;;;4998065;28;19921;-68
2022/04/12 05:10:20;;;;;;;;;;;5.50;99.90;;;;;;5002697;28;19930;-68
2022/04/12 05:12:46;;;;;;;;;;;4.70;99.90;;;;;;5003068;28;19929;-68
2022/04/12 05:15:11;;;;;;;;;;;4.60;99.90;;;;;;4999496;28;19940;-68
2022/04/12 05:17:37;;;;;;;;;;;4.70;99.90;;;;;;5007780;28;19999;-67
2022/04/12 05:20:05;;;;;;;;;;;4.70;99.90;;;;;;5009062;28;19960;-70
2022/04/12 05:22:31;;;;;;;;;;;4.70;99.90;;;;;;5011003;28;20407;-70
2022/04/12 05:24:56;;;;;;;;;;;4.70;99.90;;;;;;5001866;28;19922;-68
2022/04/12 05:27:22;;;;;;;;;;;4.70;99.90;;;;;;5001335;28;19921;-70
2022/04/12 05:29:48;;;;;;;;;;;4.70;99.90;;;;;;4998551;28;19921;-68
2022/04/12 05:32:14;;;;;;;;;;;4.80;99.90;;;;;;4992217;28;19987;-69
2022/04/12 05:34:40;;;;;;;;;;;4.90;99.90;;;;;;5010240;28;19976;-69
2022/04/12 05:37:05;;;;;;;;;;;4.90;99.90;;;;;;5018280;28;20012;-68
2022/04/12 05:39:34;;;;;;;;;;;5.00;99.90;;;;;;5019169;28;20127;-69
2022/04/12 05:42:00;;;;;;;;;;;5.70;99.90;;;;;;5009368;28;20335;-70
2022/04/12 05:44:29;;;;;;;;;;;5.20;99.90;;;;;;5005638;28;19953;-69
2022/04/12 05:46:57;;;;;;;;;;;5.30;99.90;;;;;;5003844;28;20342;-70
2022/04/12 05:49:25;;;;;;;;;;;5.50;99.90;;;;;;5004768;28;19929;-68
2022/04/12 05:51:50;;;;;;;;;;;5.50;99.90;;;;;;5008203;28;19931;-68
2022/04/12 05:54:19;;;;;;;;;;;5.70;99.90;;;;;;4995146;28;19992;-68
2022/04/12 05:56:45;;;;;;;;;;;5.80;99.90;;;;;;5002670;28;20001;-69
2022/04/12 05:59:10;;;;;;;;;;;6.10;99.90;;;;;;5001000;28;19922;-69
2022/04/12 06:01:36;;;;;;;;;;;6.10;99.90;;;;;;5030532;28;19922;-69
2022/04/12 06:04:01;;;;;;;;;;;6.20;99.90;;;;;;5000299;28;19921;-69
2022/04/12 06:06:27;;;;;;;;;;;6.20;99.90;;;;;;4991922;28;19922;-69
2022/04/12 06:08:53;;;;;;;;;;;6.20;99.90;;;;;;5005164;28;20011;-69
2022/04/12 06:11:19;;;;;;;;;;;6.20;99.90;;;;;;5008985;28;19939;-68
2022/04/12 06:13:44;;;;;;;;;;;6.20;99.90;;;;;;5010282;28;19921;-69
2022/04/12 06:16:10;;;;;;;;;;;6.20;99.90;;;;;;5010004;28;20616;-70
2022/04/12 06:18:35;;;;;;;;;;;6.20;99.90;;;;;;4997640;28;19968;-69
2022/04/12 06:21:01;;;;;;;;;;;6.30;99.90;;;;;;4997343;28;19929;-68
2022/04/12 06:23:28;;;;;;;;;;;6.30;99.90;;;;;;4998666;28;20350;-69
2022/04/12 06:25:54;;;;;;;;;;;6.40;99.90;;;;;;4998604;28;19922;-70
2022/04/12 06:28:20;;;;;;;;;;;7.10;99.90;;;;;;5006902;28;19992;-69
2022/04/12 06:30:47;;;;;;;;;;;6.50;99.90;;;;;;5011673;28;20330;-69
2022/04/12 06:33:13;;;;;;;;;;;6.60;99.90;;;;;;4997788;28;19921;-69
2022/04/12 06:35:38;;;;;;;;;;;7.20;99.90;;;;;;5008125;28;19922;-70
2022/04/12 06:38:04;;;;;;;;;;;6.80;99.90;;;;;;5004628;28;19928;-69
2022/04/12 06:40:30;;;;;;;;;;;6.90;99.90;;;;;;4992766;28;20339;-69
2022/04/12 06:42:55;;;;;;;;;;;7.00;99.90;;;;;;5002612;28;19940;-69
2022/04/12 06:45:22;;;;;;;;;;;7.10;99.90;;;;;;5012420;28;19932;-68
2022/04/12 06:47:58;;;;;;;;;;;7.40;99.90;;;;;;5007316;28;19922;-69
2022/04/12 06:50:24;;;;;;;;;;;7.30;99.90;;;;;;5007124;28;19921;-68
2022/04/12 06:52:50;;;;;;;;;;;7.30;99.90;;;;;;5008327;28;19979;-69
2022/04/12 06:55:16;;;;;;;;;;;7.40;99.90;;;;;;5009692;28;19929;-68
2022/04/12 06:57:42;;;;;;;;;;;7.50;99.90;;;;;;5001890;28;20294;-71
2022/04/12 07:00:08;;;;;;;;;;;7.50;99.90;;;;;;4990723;28;19922;-69
2022/04/12 07:02:34;;;;;;;;;;;7.50;99.90;;;;;;5011449;28;19929;-69
2022/04/12 07:05:00;;;;;;;;;;;7.50;99.90;;;;;;5012062;28;19922;-68
2022/04/12 07:07:25;;;;;;;;;;;7.90;99.90;;;;;;5012964;28;19921;-69
2022/04/12 07:09:51;;;;;;;;;;;7.60;99.90;;;;;;5006488;28;20036;-68
2022/04/12 07:12:16;;;;;;;;;;;7.70;99.90;;;;;;5023683;28;19921;-68
2022/04/12 07:14:42;;;;;;;;;;;7.80;99.90;;;;;;5025722;28;19953;-69
2022/04/12 07:17:07;;;;;;;;;;;7.80;99.90;;;;;;4997280;28;19984;-68
2022/04/12 07:19:33;;;;;;;;;;;7.90;99.90;;;;;;4998839;28;20368;-70
2022/04/12 07:21:58;;;;;;;;;;;8.10;99.90;;;;;;5015618;28;19921;-68
2022/04/12 07:24:24;;;;;;;;;;;8.10;99.90;;;;;;4993191;28;20383;-69
2022/04/12 07:26:50;;;;;;;;;;;8.10;99.90;;;;;;5003821;28;20369;-69
2022/04/12 07:29:15;;;;;;;;;;;8.20;99.90;;;;;;5015253;28;20661;-68
2022/04/12 07:31:41;;;;;;;;;;;8.30;99.90;;;;;;5014851;28;20016;-69
2022/04/12 07:34:10;;;;;;;;;;;8.60;99.90;;;;;;5015323;28;19976;-69
2022/04/12 07:36:39;;;;;;;;;;;9.00;99.90;;;;;;5014926;28;19921;-68
2022/04/12 07:39:11;;;;;;;;;;;9.10;99.90;;;;;;5013930;28;19999;-70
2022/04/12 07:41:37;;;;;;;;;;;9.20;99.90;;;;;;5009803;28;20302;-70
2022/04/12 07:44:12;;;;;;;;;;;9.30;99.90;;;;;;4999815;28;20450;-68
2022/04/12 07:46:37;;;;;;;;;;;9.50;99.90;;;;;;5002466;28;19922;-69
2022/04/12 07:49:03;;;;;;;;;;;9.60;99.90;;;;;;4997571;28;20005;-70
2022/04/12 07:51:28;;;;;;;;;;;9.80;99.90;;;;;;5016186;28;20008;-68
2022/04/12 07:53:54;;;;;;;;;;;10.10;99.90;;;;;;5015135;28;20285;-68
2022/04/12 07:56:19;;;;;;;;;;;10.50;99.90;;;;;;5015281;28;19921;-70
2022/04/12 07:58:45;;;;;;;;;;;10.10;99.90;;;;;;5016609;28;19965;-69
2022/04/12 08:01:11;;;;;;;;;;;10.20;99.90;;;;;;5030150;28;19952;-70
2022/04/12 08:03:36;;;;;;;;;;;10.30;99.90;;;;;;5014295;28;19921;-70
2022/04/12 08:06:02;;;;;;;;;;;10.40;99.90;;;;;;5011720;28;19922;-69
2022/04/12 08:08:28;;;;;;;;;;;10.60;99.90;;;;;;5010513;28;20367;-69
2022/04/12 08:10:53;;;;;;;;;;;10.60;99.90;;;;;;5012763;28;20235;-70
2022/04/12 08:13:19;;;;;;;;;;;10.70;99.90;;;;;;5015947;28;19928;-69
2022/04/12 08:15:44;;;;;;;;;;;10.50;99.90;;;;;;5015271;28;20351;-70
2022/04/12 08:18:10;;;;;;;;;;;11.00;99.90;;;;;;5014751;28;19921;-71
2022/04/12 08:20:36;;;;;;;;;;;11.10;99.90;;;;;;5019522;28;19976;-69
2022/04/12 08:23:02;;;;;;;;;;;11.20;99.90;;;;;;4998243;28;19944;-70
2022/04/12 08:25:28;;;;;;;;;;;11.40;99.90;;;;;;5013852;28;19921;-69
2022/04/12 08:27:53;;;;;;;;;;;11.60;99.90;;;;;;4998559;28;20004;-71
2022/04/12 08:30:19;;;;;;;;;;;11.60;99.90;;;;;;4998903;28;19921;-69
2022/04/12 08:32:44;;;;;;;;;;;11.70;99.90;;;;;;5014253;28;19925;-69
2022/04/12 08:35:11;;;;;;;;;;;11.90;99.90;;;;;;5014531;28;19921;-69
2022/04/12 08:37:38;;;;;;;;;;;12.10;99.90;;;;;;5013827;28;19927;-70
2022/04/12 08:40:04;;;;;;;;;;;12.10;99.90;;;;;;5012853;28;20307;-69
2022/04/12 08:42:30;;;;;;;;;;;12.30;99.90;;;;;;5014169;28;19921;-69
2022/04/12 08:44:57;;;;;;;;;;;12.40;99.90;;;;;;5014567;28;20239;-70
2022/04/12 08:47:23;;;;;;;;;;;12.50;99.90;;;;;;5004946;28;19925;-70
2022/04/12 08:49:50;;;;;;;;;;;12.60;99.90;;;;;;5029972;28;19921;-70
2022/04/12 08:52:15;;;;;;;;;;;12.60;99.70;;;;;;5008605;28;19929;-70
2022/04/12 08:54:42;;;;;;;;;;;12.50;99.80;;;;;;5008018;28;20319;-70
2022/04/12 08:57:08;;;;;;;;;;;12.50;99.60;;;;;;5001655;28;19921;-69
2022/04/12 08:59:33;;;;;;;;;;;12.60;99.60;;;;;;4997123;28;19944;-70
2022/04/12 09:01:59;;;;;;;;;;;12.60;99.50;;;;;;5014111;28;19973;-70
2022/04/12 09:04:28;;;;;;;;;;;12.70;99.60;;;;;;5011070;28;19933;-70
2022/04/12 09:06:54;;;;;;;;;;;12.80;99.20;;;;;;5015074;28;19932;-71
2022/04/12 09:09:21;;;;;;;;;;;13.00;99.30;;;;;;5012917;28;19929;-70
2022/04/12 09:12:06;;;;;;;;;;;13.00;99.20;;;;;;5011484;28;19928;-70
2022/04/12 09:14:38;;;;;;;;;;;13.00;99.20;;;;;;5013524;28;19921;-70
2022/04/12 09:17:04;;;;;;;;;;;13.10;98.70;;;;;;5013058;28;19940;-70
2022/04/12 09:19:37;;;;;;;;;;;13.30;99.20;;;;;;5008837;28;19942;-70
2022/04/12 09:22:08;;;;;;;;;;;13.40;99.30;;;;;;4996277;28;19921;-68
2022/04/12 09:24:42;;;;;;;;;;;13.50;98.80;;;;;;5007259;28;20048;-69
2022/04/12 09:27:10;;;;;;;;;;;13.50;98.80;;;;;;5012155;28;19929;-69
2022/04/12 09:29:37;;;;;;;;;;;13.70;98.40;;;;;;5028309;28;20294;-69
2022/04/12 09:32:06;;;;;;;;;;;13.60;98.60;;;;;;5028541;28;19968;-70
2022/04/12 09:34:32;;;;;;;;;;;13.80;98.00;;;;;;5009763;28;20021;-71
2022/04/12 09:36:57;;;;;;;;;;;14.10;98.00;;;;;;5010228;28;20004;-70
2022/04/12 09:39:23;;;;;;;;;;;14.20;98.20;;;;;;5012211;28;19926;-69
2022/04/12 09:41:49;;;;;;;;;;;14.40;98.60;;;;;;5006522;28;19926;-70
2022/04/12 09:44:18;;;;;;;;;;;14.60;98.30;;;;;;4996259;28;20021;-69
2022/04/12 09:46:44;;;;;;;;;;;14.90;97.90;;;;;;5014139;28;19922;-70
2022/04/12 09:49:10;;;;;;;;;;;15.00;96.40;;;;;;5011922;28;19921;-70
2022/04/12 09:51:38;;;;;;;;;;;15.10;96.30;;;;;;5013854;28;19928;-69
2022/04/12 09:54:06;;;;;;;;;;;15.40;97.10;;;;;;5013264;28;20379;-69
2022/04/12 09:56:32;;;;;;;;;;;15.40;96.90;;;;;;5014060;28;19964;-70
2022/04/12 09:58:58;;;;;;;;;;;15.60;96.60;;;;;;5013404;28;19968;-70
2022/04/12 10:01:25;;;;;;;;;;;15.70;94.70;;;;;;5008549;28;20273;-71
2022/04/12 10:03:54;;;;;;;;;;;15.80;95.50;;;;;;4992930;28;19922;-70
2022/04/12 10:06:21;;;;;;;;;;;16.00;95.60;;;;;;4994292;28;19921;-70
2022/04/12 10:08:50;;;;;;;;;;;16.20;94.70;;;;;;5006519;28;19921;-71
2022/04/12 10:11:16;;;;;;;;;;;16.30;94.00;;;;;;5025176;28;19922;-70
2022/04/12 10:13:42;;;;;;;;;;;16.10;94.20;;;;;;4998647;28;19987;-69
2022/04/12 10:16:08;;;;;;;;;;;16.20;94.00;;;;;;4996980;28;19921;-70
2022/04/12 10:18:34;;;;;;;;;;;16.40;94.10;;;;;;4998575;28;20355;-70
2022/04/12 10:21:03;;;;;;;;;;;16.60;94.10;;;;;;5010877;28;20066;-70
2022/04/12 10:23:29;;;;;;;;;;;16.70;93.30;;;;;;5002001;28;20016;-69
2022/04/12 10:25:55;;;;;;;;;;;16.90;93.60;;;;;;5002056;28;20397;-70
2022/04/12 10:28:22;;;;;;;;;;;17.30;92.60;;;;;;5012644;28;19927;-71
2022/04/12 10:30:48;;;;;;;;;;;17.70;93.50;;;;;;5012631;28;19968;-71
2022/04/12 10:33:26;;;;;;;;;;;18.00;91.90;;;;;;5013447;28;19925;-70
2022/04/12 10:35:54;;;;;;;;;;;18.30;91.30;;;;;;5009952;28;19929;-71
2022/04/12 10:38:20;;;;;;;;;;;18.40;87.70;;;;;;5002796;28;19973;-71
2022/04/12 10:40:46;;;;;;;;;;;18.60;89.40;;;;;;5003721;28;19921;-70
2022/04/12 10:43:21;;;;;;;;;;;18.60;86.70;;;;;;5011324;28;20326;-70
2022/04/12 10:45:47;;;;;;;;;;;18.80;89.10;;;;;;5011735;28;20028;-70
2022/04/12 10:48:24;;;;;;;;;;;18.90;85.50;;;;;;5011030;28;20012;-69
2022/04/12 10:50:51;;;;;;;;;;;19.10;82.40;;;;;;4994371;28;19964;-69
2022/04/12 10:53:35;;;;;;;;;;;19.30;82.80;;;;;;5010180;28;19922;-69
2022/04/12 10:56:02;;;;;;;;;;;19.60;82.90;;;;;;5000313;28;20437;-71
2022/04/12 10:58:29;;;;;;;;;;;19.90;78.70;;;;;;5012188;28;19921;-70
2022/04/12 11:00:54;;;;;;;;;;;19.80;80.30;;;;;;5010407;28;20326;-70
2022/04/12 11:03:25;;;;;;;;;;;19.80;79.20;;;;;;4999937;28;19921;-71
2022/04/12 11:05:52;;;;;;;;;;;19.70;78.20;;;;;;5009725;28;20358;-69
2022/04/12 11:08:18;;;;;;;;;;;19.60;78.10;;;;;;5004047;28;20001;-68
2022/04/12 11:10:54;;;;;;;;;;;19.80;80.10;;;;;;5005389;28;19977;-70
2022/04/12 11:13:23;;;;;;;;;;;19.90;77.60;;;;;;5007342;28;19922;-71
2022/04/12 11:15:56;;;;;;;;;;;20.00;77.90;;;;;;5003320;28;20395;-69
2022/04/12 11:18:21;;;;;;;;;;;20.10;75.70;;;;;;5004691;28;19969;-70
2022/04/12 11:21:01;;;;;;;;;;;20.20;78.10;;;;;;5009199;28;20359;-71
2022/04/12 11:23:46;;;;;;;;;;;19.90;75.20;;;;;;5004421;28;19921;-70
2022/04/12 11:26:28;;;;;;;;;;;20.10;77.30;;;;;;5005689;28;19929;-68
2022/04/12 11:28:55;;;;;;;;;;;20.30;78.30;;;;;;5008968;28;20242;-70
2022/04/12 11:31:22;;;;;;;;;;;20.60;77.90;;;;;;5007951;28;19929;-70
2022/04/12 11:33:48;;;;;;;;;;;20.30;76.20;;;;;;5026894;28;19983;-71
2022/04/12 11:36:17;;;;;;;;;;;20.50;76.50;;;;;;4994648;28;19922;-70
2022/04/12 11:38:42;;;;;;;;;;;20.70;75.00;;;;;;5007982;28;19937;-69
2022/04/12 11:41:08;;;;;;;;;;;20.60;74.70;;;;;;5002730;28;19921;-70
2022/04/12 11:43:34;;;;;;;;;;;20.60;77.10;;;;;;5010296;28;19961;-69
2022/04/12 11:46:01;;;;;;;;;;;20.60;76.40;;;;;;4995120;28;19991;-70
2022/04/12 11:48:28;;;;;;;;;;;20.70;75.30;;;;;;5011947;28;19921;-69
2022/04/12 11:50:54;;;;;;;;;;;20.60;73.70;;;;;;5006715;28;19921;-70
2022/04/12 11:53:20;;;;;;;;;;;20.50;72.70;;;;;;5008880;28;19979;-69
2022/04/12 11:55:46;;;;;;;;;;;20.40;73.10;;;;;;5009784;28;20371;-70
2022/04/12 11:58:12;;;;;;;;;;;20.30;74.00;;;;;;5010697;28;19928;-70
2022/04/12 12:00:37;;;;;;;;;;;20.30;73.90;;;;;;5006804;28;19922;-70
2022/04/12 12:03:03;;;;;;;;;;;20.20;74.30;;;;;;5014861;28;19928;-70
2022/04/12 12:05:30;;;;;;;;;;;20.20;75.10;;;;;;5015765;28;19927;-71
2022/04/12 12:07:59;;;;;;;;;;;20.20;74.30;;;;;;5008828;28;19922;-70
2022/04/12 12:10:25;;;;;;;;;;;20.30;75.60;;;;;;5011628;28;19926;-70
2022/04/12 12:12:51;;;;;;;;;;;20.20;74.50;;;;;;5002253;28;19926;-70
2022/04/12 12:15:18;;;;;;;;;;;20.20;74.90;;;;;;5012645;28;19921;-70
2022/04/12 12:17:44;;;;;;;;;;;20.10;74.60;;;;;;5012391;28;20011;-69
2022/04/12 12:20:10;;;;;;;;;;;20.00;74.20;;;;;;5006638;28;19926;-69
2022/04/12 12:22:37;;;;;;;;;;;19.90;75.20;;;;;;4994966;28;19925;-70
2022/04/12 12:25:03;;;;;;;;;;;19.90;75.50;;;;;;5009390;28;19925;-70
2022/04/12 12:27:38;;;;;;;;;;;20.00;75.90;;;;;;5004712;28;19976;-70
2022/04/12 12:30:04;;;;;;;;;;;20.30;77.50;;;;;;5009472;28;19925;-70
2022/04/12 12:32:30;;;;;;;;;;;20.20;75.90;;;;;;5004795;28;19929;-70
2022/04/12 12:35:00;;;;;;;;;;;20.20;74.70;;;;;;5005853;28;19925;-70
2022/04/12 12:37:25;;;;;;;;;;;20.30;75.20;;;;;;5014654;28;20304;-70
2022/04/12 12:39:51;;;;;;;;;;;20.40;76.60;;;;;;5008709;28;19934;-70
2022/04/12 12:42:16;;;;;;;;;;;20.60;75.10;;;;;;5007052;28;20343;-69
2022/04/12 12:44:42;;;;;;;;;;;20.80;76.20;;;;;;5008695;28;19922;-70
2022/04/12 12:47:09;;;;;;;;;;;20.90;73.80;;;;;;5011833;28;19976;-69
2022/04/12 12:49:38;;;;;;;;;;;20.70;73.80;;;;;;5022628;28;20291;-69
2022/04/12 12:52:05;;;;;;;;;;;20.70;74.50;;;;;;5014110;28;19928;-70
2022/04/12 12:54:31;;;;;;;;;;;20.50;74.30;;;;;;5002820;28;19968;-70
2022/04/12 12:56:58;;;;;;;;;;;20.40;74.50;;;;;;5001214;28;20028;-75
2022/04/12 12:59:31;;;;;;;;;;;20.30;75.20;;;;;;5014060;28;19944;-68
2022/04/12 13:01:57;;;;;;;;;;;20.30;75.40;;;;;;4996778;28;19926;-70
2022/04/12 13:04:23;;;;;;;;;;;20.40;76.40;;;;;;5005692;28;19980;-67
2022/04/12 13:06:59;;;;;;;;;;;20.40;74.90;;;;;;5010104;28;19925;-69
2022/04/12 13:09:25;;;;;;;;;;;20.50;73.90;;;;;;4991808;28;19936;-71
2022/04/12 13:11:50;;;;;;;;;;;20.50;74.90;;;;;;5003965;28;19925;-69
2022/04/12 13:14:16;;;;;;;;;;;20.50;73.50;;;;;;5013329;28;20354;-69
2022/04/12 13:16:41;;;;;;;;;;;20.40;73.20;;;;;;5004076;28;19926;-70
2022/04/12 13:19:07;;;;;;;;;;;20.20;74.20;;;;;;5000085;28;20492;-70
2022/04/12 13:21:33;;;;;;;;;;;20.20;75.60;;;;;;5000545;28;19932;-71
2022/04/12 13:23:58;;;;;;;;;;;20.20;75.00;;;;;;5009078;28;19932;-69
2022/04/12 13:26:24;;;;;;;;;;;20.10;74.40;;;;;;5024554;28;19929;-69
2022/04/12 13:28:49;;;;;;;;;;;19.90;73.70;;;;;;5001495;28;20380;-70
2022/04/12 13:31:15;;;;;;;;;;;19.80;75.00;;;;;;4997193;28;19925;-70
2022/04/12 13:33:43;;;;;;;;;;;19.80;74.70;;;;;;4991881;28;19925;-67
2022/04/12 13:36:09;;;;;;;;;;;19.80;76.30;;;;;;4999638;28;19932;-70
2022/04/12 13:38:34;;;;;;;;;;;19.60;76.00;;;;;;5000014;28;20391;-70
2022/04/12 13:41:00;;;;;;;;;;;19.50;76.40;;;;;;5008766;28;19926;-71
2022/04/12 13:43:25;;;;;;;;;;;19.60;77.60;;;;;;5000293;28;19926;-71
2022/04/12 13:45:53;;;;;;;;;;;19.60;76.50;;;;;;4994577;28;19948;-70
2022/04/12 13:48:18;;;;;;;;;;;19.60;77.20;;;;;;4995060;28;19925;-70
2022/04/12 13:50:44;;;;;;;;;;;19.60;77.50;;;;;;5001491;28;19928;-72
2022/04/12 13:53:09;;;;;;;;;;;19.60;76.70;;;;;;4997678;28;19968;-69
2022/04/12 13:55:35;;;;;;;;;;;19.50;77.00;;;;;;4997982;28;19987;-69
2022/04/12 13:58:00;;;;;;;;;;;19.60;77.70;;;;;;4992781;28;19988;-69
2022/04/12 14:00:26;;;;;;;;;;;19.50;77.10;;;;;;4999087;28;19922;-70
2022/04/12 14:02:52;;;;;;;;;;;19.60;76.40;;;;;;4995315;28;19980;-71
2022/04/12 14:05:20;;;;;;;;;;;19.70;76.80;;;;;;5000629;28;19936;-68
2022/04/12 14:07:47;;;;;;;;;;;19.80;77.10;;;;;;4993338;28;19980;-70
2022/04/12 14:10:12;;;;;;;;;;;19.80;76.90;;;;;;4992960;28;19969;-70
2022/04/12 14:12:38;;;;;;;;;;;19.80;75.60;;;;;;5007231;28;19968;-70
2022/04/12 14:15:04;;;;;;;;;;;19.90;76.10;;;;;;5004965;28;19932;-70
2022/04/12 14:17:29;;;;;;;;;;;20.00;77.30;;;;;;5006811;28;19978;-69
2022/04/12 14:19:54;;;;;;;;;;;20.00;76.50;;;;;;4999920;28;20008;-70
2022/04/12 14:22:20;;;;;;;;;;;19.90;76.70;;;;;;5015280;28;19922;-70